createdAt,value
2023-02-02T00:00:03.808Z,975.95
2023-02-02T00:01:03.717Z,976.01
2023-02-02T00:02:03.780Z,975.87
2023-02-02T00:03:03.944Z,976.01
2023-02-02T00:04:03.905Z,976.12
2023-02-02T00:05:03.718Z,976.01
2023-02-02T00:06:03.715Z,976.04
2023-02-02T00:07:03.713Z,976.01
2023-02-02T00:08:03.545Z,976.01
2023-02-02T00:09:03.671Z,976.01
2023-02-02T00:10:03.586Z,976.07
2023-02-02T00:11:03.499Z,976.01
2023-02-02T00:12:03.380Z,976.04
2023-02-02T00:13:03.336Z,976.04
2023-02-02T00:14:03.393Z,976.15
2023-02-02T00:15:03.265Z,976.07
2023-02-02T00:16:03.245Z,976.10
2023-02-02T00:17:03.318Z,976.12
2023-02-02T00:18:03.325Z,976.12
2023-02-02T00:19:03.217Z,976.18
2023-02-02T00:20:03.219Z,975.98
2023-02-02T00:21:03.167Z,976.01
2023-02-02T00:22:03.135Z,976.26
2023-02-02T00:23:03.198Z,976.10
2023-02-02T00:24:03.237Z,976.04
2023-02-02T00:25:03.013Z,976.18
2023-02-02T00:26:02.998Z,976.07
2023-02-02T00:27:03.004Z,976.09
2023-02-02T00:28:03.008Z,976.09
2023-02-02T00:29:02.934Z,976.18
2023-02-02T00:30:03.859Z,976.09
2023-02-02T00:31:03.924Z,976.15
2023-02-02T00:32:02.993Z,976.01
2023-02-02T00:33:02.917Z,976.12
2023-02-02T00:34:03.885Z,976.24
2023-02-02T00:35:03.843Z,976.12
2023-02-02T00:36:03.689Z,976.15
2023-02-02T00:37:03.654Z,976.21
2023-02-02T00:38:03.613Z,976.07
2023-02-02T00:39:03.636Z,976.12
2023-02-02T00:40:03.623Z,976.06
2023-02-02T00:41:03.544Z,976.09
2023-02-02T00:42:03.538Z,976.21
2023-02-02T00:43:03.587Z,976.15
2023-02-02T00:44:03.518Z,976.23
2023-02-02T00:45:03.501Z,976.18
2023-02-02T00:46:03.291Z,976.18
2023-02-02T00:47:03.213Z,976.12
2023-02-02T00:48:03.073Z,976.20
2023-02-02T00:49:03.000Z,976.20
2023-02-02T00:50:03.028Z,976.23
2023-02-02T00:51:02.971Z,976.34
2023-02-02T00:52:03.226Z,976.23
2023-02-02T00:53:02.891Z,976.37
2023-02-02T00:54:03.884Z,976.23
2023-02-02T00:55:03.858Z,976.17
2023-02-02T00:56:03.852Z,976.34
2023-02-02T00:57:03.899Z,976.37
2023-02-02T00:58:03.821Z,976.40
2023-02-02T00:59:03.775Z,976.40
2023-02-02T01:00:03.708Z,976.40
2023-02-02T01:01:03.921Z,976.43
2023-02-02T01:02:03.863Z,976.51
2023-02-02T01:03:02.940Z,976.59
2023-02-02T01:04:02.941Z,976.59
2023-02-02T01:05:03.028Z,976.45
2023-02-02T01:06:02.945Z,976.59
2023-02-02T01:07:03.851Z,976.45
2023-02-02T01:08:03.765Z,976.45
2023-02-02T01:09:03.937Z,976.56
2023-02-02T01:10:04.057Z,976.42
2023-02-02T01:11:03.096Z,976.40
2023-02-02T01:12:03.091Z,976.51
2023-02-02T01:13:03.084Z,976.51
2023-02-02T01:14:03.075Z,976.48
2023-02-02T01:15:03.048Z,976.50
2023-02-02T01:16:03.121Z,976.48
2023-02-02T01:17:03.133Z,976.45
2023-02-02T01:18:03.057Z,976.67
2023-02-02T01:19:02.962Z,976.48
2023-02-02T01:20:03.050Z,976.51
2023-02-02T01:21:02.884Z,976.59
2023-02-02T01:22:03.879Z,976.56
2023-02-02T01:23:02.935Z,976.59
2023-02-02T01:24:03.853Z,976.51
2023-02-02T01:25:03.887Z,976.53
2023-02-02T01:26:03.881Z,976.45
2023-02-02T01:27:03.808Z,976.48
2023-02-02T01:28:03.725Z,976.45
2023-02-02T01:29:03.650Z,976.56
2023-02-02T01:30:03.548Z,976.53
2023-02-02T01:31:03.707Z,976.48
2023-02-02T01:32:03.709Z,976.50
2023-02-02T01:33:03.485Z,976.56
2023-02-02T01:34:03.419Z,976.50
2023-02-02T01:35:03.372Z,976.64
2023-02-02T01:36:03.328Z,976.50
2023-02-02T01:37:03.678Z,976.50
2023-02-02T01:38:03.717Z,976.67
2023-02-02T01:39:03.756Z,976.50
2023-02-02T01:40:03.632Z,976.67
2023-02-02T01:41:03.705Z,976.67
2023-02-02T01:42:03.752Z,976.64
2023-02-02T01:43:03.626Z,976.48
2023-02-02T01:44:03.672Z,976.75
2023-02-02T01:45:03.544Z,976.64
2023-02-02T01:46:03.679Z,976.50
2023-02-02T01:47:03.552Z,976.53
2023-02-02T01:48:03.586Z,976.56
2023-02-02T01:49:03.633Z,976.53
2023-02-02T01:50:03.470Z,976.67
2023-02-02T01:51:03.534Z,976.64
2023-02-02T01:52:03.423Z,976.56
2023-02-02T01:53:03.394Z,976.53
2023-02-02T01:54:03.294Z,976.70
2023-02-02T01:55:03.310Z,976.62
2023-02-02T01:56:03.474Z,976.67
2023-02-02T01:57:03.339Z,976.80
2023-02-02T01:58:03.241Z,976.67
2023-02-02T01:59:03.290Z,976.62
2023-02-02T02:00:03.371Z,976.80
2023-02-02T02:01:03.353Z,976.64
2023-02-02T02:02:03.463Z,976.73
2023-02-02T02:03:03.281Z,976.75
2023-02-02T02:04:03.289Z,976.78
2023-02-02T02:05:03.318Z,976.70
2023-02-02T02:06:03.325Z,976.64
2023-02-02T02:07:03.308Z,976.59
2023-02-02T02:08:03.291Z,976.70
2023-02-02T02:09:03.199Z,976.59
2023-02-02T02:10:03.119Z,976.65
2023-02-02T02:11:03.066Z,976.56
2023-02-02T02:12:03.132Z,976.54
2023-02-02T02:13:03.121Z,976.62
2023-02-02T02:14:03.227Z,976.65
2023-02-02T02:15:03.063Z,976.68
2023-02-02T02:16:03.034Z,976.68
2023-02-02T02:17:03.048Z,976.75
2023-02-02T02:18:03.087Z,976.62
2023-02-02T02:19:03.017Z,976.70
2023-02-02T02:20:03.023Z,976.70
2023-02-02T02:21:02.886Z,976.73
2023-02-02T02:22:03.848Z,976.59
2023-02-02T02:23:03.777Z,976.73
2023-02-02T02:24:03.762Z,976.78
2023-02-02T02:25:03.672Z,976.65
2023-02-02T02:26:03.687Z,976.75
2023-02-02T02:27:03.669Z,976.78
2023-02-02T02:28:03.526Z,976.78
2023-02-02T02:29:03.579Z,976.62
2023-02-02T02:30:03.555Z,976.65
2023-02-02T02:31:03.554Z,976.74
2023-02-02T02:32:03.419Z,976.81
2023-02-02T02:33:03.301Z,976.84
2023-02-02T02:34:03.182Z,976.68
2023-02-02T02:35:03.159Z,976.74
2023-02-02T02:36:03.048Z,976.78
2023-02-02T02:37:03.063Z,976.68
2023-02-02T02:38:02.977Z,976.89
2023-02-02T02:39:02.868Z,976.90
2023-02-02T02:40:03.864Z,976.81
2023-02-02T02:41:03.832Z,976.68
2023-02-02T02:42:03.698Z,976.79
2023-02-02T02:43:03.782Z,976.81
2023-02-02T02:44:03.856Z,976.79
2023-02-02T02:45:03.594Z,976.79
2023-02-02T02:46:03.686Z,976.69
2023-02-02T02:47:03.543Z,976.63
2023-02-02T02:48:03.618Z,976.87
2023-02-02T02:49:03.560Z,976.79
2023-02-02T02:50:03.469Z,976.57
2023-02-02T02:51:03.578Z,976.74
2023-02-02T02:52:03.429Z,976.84
2023-02-02T02:53:03.527Z,976.71
2023-02-02T02:54:03.542Z,976.74
2023-02-02T02:55:03.431Z,976.79
2023-02-02T02:56:03.347Z,976.66
2023-02-02T02:57:03.424Z,976.85
2023-02-02T02:58:03.281Z,976.85
2023-02-02T02:59:03.325Z,976.72
2023-02-02T03:00:03.357Z,976.63
2023-02-02T03:01:03.254Z,976.69
2023-02-02T03:02:03.143Z,976.79
2023-02-02T03:03:03.071Z,976.74
2023-02-02T03:04:03.049Z,976.66
2023-02-02T03:05:02.915Z,976.90
2023-02-02T03:06:03.830Z,976.69
2023-02-02T03:07:03.920Z,976.69
2023-02-02T03:08:03.877Z,976.66
2023-02-02T03:09:03.768Z,976.72
2023-02-02T03:10:03.634Z,976.76
2023-02-02T03:11:03.649Z,976.85
2023-02-02T03:12:03.626Z,976.66
2023-02-02T03:13:03.514Z,976.79
2023-02-02T03:14:03.471Z,976.90
2023-02-02T03:15:03.511Z,976.74
2023-02-02T03:16:03.538Z,976.76
2023-02-02T03:17:03.391Z,976.76
2023-02-02T03:18:03.345Z,976.85
2023-02-02T03:19:03.229Z,976.85
2023-02-02T03:20:03.305Z,976.58
2023-02-02T03:21:03.258Z,976.77
2023-02-02T03:22:03.345Z,976.72
2023-02-02T03:23:03.245Z,976.72
2023-02-02T03:24:03.178Z,976.82
2023-02-02T03:25:03.175Z,976.69
2023-02-02T03:26:03.123Z,976.77
2023-02-02T03:27:03.078Z,976.88
2023-02-02T03:28:02.952Z,976.82
2023-02-02T03:29:02.911Z,976.82
2023-02-02T03:30:03.864Z,976.96
2023-02-02T03:31:04.085Z,976.88
2023-02-02T03:32:03.770Z,976.88
2023-02-02T03:33:03.662Z,976.96
2023-02-02T03:34:03.630Z,976.80
2023-02-02T03:35:03.548Z,976.93
2023-02-02T03:36:03.479Z,976.91
2023-02-02T03:37:03.530Z,976.88
2023-02-02T03:38:03.493Z,976.77
2023-02-02T03:39:03.348Z,977.05
2023-02-02T03:40:03.393Z,976.96
2023-02-02T03:41:03.374Z,976.91
2023-02-02T03:42:03.337Z,976.93
2023-02-02T03:43:03.285Z,977.07
2023-02-02T03:44:03.251Z,976.99
2023-02-02T03:45:03.351Z,977.02
2023-02-02T03:46:03.451Z,977.02
2023-02-02T03:47:03.194Z,977.10
2023-02-02T03:48:03.117Z,976.99
2023-02-02T03:49:03.159Z,977.10
2023-02-02T03:50:03.111Z,977.05
2023-02-02T03:51:03.106Z,977.02
2023-02-02T03:52:03.151Z,977.05
2023-02-02T03:53:03.102Z,976.99
2023-02-02T03:54:02.885Z,977.02
2023-02-02T03:55:02.984Z,977.10
2023-02-02T03:56:02.947Z,977.05
2023-02-02T03:57:02.993Z,976.99
2023-02-02T03:58:03.025Z,977.18
2023-02-02T03:59:02.959Z,977.10
2023-02-02T04:00:02.929Z,977.21
2023-02-02T04:01:02.954Z,976.96
2023-02-02T04:02:02.954Z,977.04
2023-02-02T04:03:03.137Z,977.07
2023-02-02T04:04:02.906Z,977.07
2023-02-02T04:05:02.965Z,977.21
2023-02-02T04:06:03.845Z,977.07
2023-02-02T04:07:03.729Z,977.21
2023-02-02T04:08:04.004Z,977.21
2023-02-02T04:09:03.874Z,977.18
2023-02-02T04:10:03.708Z,977.30
2023-02-02T04:11:03.750Z,977.21
2023-02-02T04:12:03.697Z,977.27
2023-02-02T04:13:03.602Z,977.27
2023-02-02T04:14:03.536Z,977.21
2023-02-02T04:15:03.536Z,977.27
2023-02-02T04:16:03.647Z,977.21
2023-02-02T04:17:03.538Z,977.38
2023-02-02T04:18:03.592Z,977.21
2023-02-02T04:19:03.550Z,977.07
2023-02-02T04:20:03.455Z,977.29
2023-02-02T04:21:03.400Z,977.32
2023-02-02T04:22:03.405Z,977.38
2023-02-02T04:23:03.378Z,977.24
2023-02-02T04:24:03.394Z,977.27
2023-02-02T04:25:03.415Z,977.21
2023-02-02T04:26:03.283Z,977.41
2023-02-02T04:27:03.238Z,977.07
2023-02-02T04:28:03.259Z,977.27
2023-02-02T04:29:03.253Z,977.33
2023-02-02T04:30:03.309Z,977.30
2023-02-02T04:31:03.262Z,977.46
2023-02-02T04:32:03.294Z,977.41
2023-02-02T04:33:03.182Z,977.38
2023-02-02T04:34:03.206Z,977.30
2023-02-02T04:35:03.162Z,977.38
2023-02-02T04:36:03.191Z,977.38
2023-02-02T04:37:03.131Z,977.41
2023-02-02T04:38:03.095Z,977.41
2023-02-02T04:39:03.035Z,977.35
2023-02-02T04:40:02.993Z,977.57
2023-02-02T04:41:03.855Z,977.52
2023-02-02T04:42:03.795Z,977.35
2023-02-02T04:43:03.691Z,977.65
2023-02-02T04:44:03.749Z,977.52
2023-02-02T04:45:03.613Z,977.54
2023-02-02T04:46:03.631Z,977.54
2023-02-02T04:47:03.526Z,977.52
2023-02-02T04:48:03.560Z,977.57
2023-02-02T04:49:03.574Z,977.52
2023-02-02T04:50:03.554Z,977.60
2023-02-02T04:51:03.524Z,977.43
2023-02-02T04:52:03.409Z,977.70
2023-02-02T04:53:03.495Z,977.54
2023-02-02T04:54:03.429Z,977.60
2023-02-02T04:55:03.438Z,977.67
2023-02-02T04:56:03.315Z,977.79
2023-02-02T04:57:03.286Z,977.70
2023-02-02T04:58:03.259Z,977.60
2023-02-02T04:59:03.193Z,977.54
2023-02-02T05:00:03.111Z,977.73
2023-02-02T05:01:03.133Z,977.65
2023-02-02T05:02:03.014Z,977.87
2023-02-02T05:03:03.010Z,977.67
2023-02-02T05:04:03.035Z,977.76
2023-02-02T05:05:03.027Z,977.67
2023-02-02T05:06:03.207Z,977.65
2023-02-02T05:07:02.963Z,977.78
2023-02-02T05:08:02.974Z,977.73
2023-02-02T05:09:02.968Z,977.84
2023-02-02T05:10:02.948Z,977.84
2023-02-02T05:11:02.916Z,977.67
2023-02-02T05:12:02.905Z,977.84
2023-02-02T05:13:02.921Z,977.76
2023-02-02T05:14:03.842Z,977.87
2023-02-02T05:15:03.931Z,977.81
2023-02-02T05:16:03.777Z,977.73
2023-02-02T05:17:03.835Z,977.84
2023-02-02T05:18:03.805Z,977.78
2023-02-02T05:19:03.849Z,977.76
2023-02-02T05:20:03.676Z,977.81
2023-02-02T05:21:03.592Z,977.84
2023-02-02T05:22:03.512Z,977.93
2023-02-02T05:23:03.543Z,977.76
2023-02-02T05:24:03.543Z,977.84
2023-02-02T05:25:03.729Z,977.81
2023-02-02T05:26:03.689Z,977.93
2023-02-02T05:27:03.483Z,977.84
2023-02-02T05:28:03.570Z,977.84
2023-02-02T05:29:03.609Z,977.87
2023-02-02T05:30:03.618Z,977.93
2023-02-02T05:31:03.655Z,977.84
2023-02-02T05:32:03.076Z,977.93
2023-02-02T05:33:03.046Z,977.76
2023-02-02T05:34:02.885Z,977.87
2023-02-02T05:35:03.832Z,977.87
2023-02-02T05:36:03.889Z,977.98
2023-02-02T05:37:03.810Z,977.90
2023-02-02T05:38:03.875Z,977.87
2023-02-02T05:39:03.802Z,977.87
2023-02-02T05:40:03.868Z,977.87
2023-02-02T05:41:03.756Z,977.87
2023-02-02T05:42:03.806Z,977.98
2023-02-02T05:43:03.629Z,977.87
2023-02-02T05:44:03.652Z,978.04
2023-02-02T05:45:03.714Z,977.93
2023-02-02T05:46:03.776Z,978.04
2023-02-02T05:47:03.583Z,977.79
2023-02-02T05:48:03.588Z,978.07
2023-02-02T05:49:03.661Z,978.15
2023-02-02T05:50:03.549Z,978.13
2023-02-02T05:51:03.576Z,978.18
2023-02-02T05:52:03.425Z,977.88
2023-02-02T05:53:03.404Z,978.02
2023-02-02T05:54:03.297Z,978.13
2023-02-02T05:55:03.181Z,978.16
2023-02-02T05:56:03.203Z,978.21
2023-02-02T05:57:03.174Z,978.16
2023-02-02T05:58:03.146Z,978.13
2023-02-02T05:59:03.097Z,978.13
2023-02-02T06:00:03.078Z,978.27
2023-02-02T06:01:03.015Z,978.16
2023-02-02T06:02:02.930Z,978.21
2023-02-02T06:03:04.046Z,978.35
2023-02-02T06:04:04.021Z,978.38
2023-02-02T06:05:03.737Z,978.27
2023-02-02T06:06:07.261Z,978.24
2023-02-02T06:07:03.681Z,978.33
2023-02-02T06:08:03.749Z,978.22
2023-02-02T06:09:03.600Z,978.27
2023-02-02T06:10:03.746Z,978.38
2023-02-02T06:11:03.579Z,978.33
2023-02-02T06:12:03.657Z,978.27
2023-02-02T06:13:03.649Z,978.33
2023-02-02T06:14:03.706Z,978.10
2023-02-02T06:15:03.595Z,978.16
2023-02-02T06:16:03.620Z,978.27
2023-02-02T06:17:03.506Z,978.30
2023-02-02T06:18:03.473Z,978.38
2023-02-02T06:19:03.358Z,978.32
2023-02-02T06:20:03.389Z,978.27
2023-02-02T06:21:03.406Z,978.27
2023-02-02T06:22:03.377Z,978.27
2023-02-02T06:23:03.350Z,978.24
2023-02-02T06:24:03.206Z,978.32
2023-02-02T06:25:03.218Z,978.38
2023-02-02T06:26:03.138Z,978.24
2023-02-02T06:27:03.109Z,978.21
2023-02-02T06:28:03.046Z,978.32
2023-02-02T06:29:02.981Z,978.41
2023-02-02T06:30:02.997Z,978.32
2023-02-02T06:31:03.121Z,978.21
2023-02-02T06:32:03.962Z,978.32
2023-02-02T06:33:03.809Z,978.45
2023-02-02T06:34:03.915Z,978.43
2023-02-02T06:35:03.862Z,978.51
2023-02-02T06:36:03.767Z,978.32
2023-02-02T06:38:03.789Z,978.51
2023-02-02T06:39:03.777Z,978.38
2023-02-02T06:40:03.716Z,978.32
2023-02-02T06:41:03.683Z,978.35
2023-02-02T06:42:22.014Z,978.29
2023-02-02T06:43:03.589Z,978.45
2023-02-02T06:44:03.497Z,978.35
2023-02-02T06:45:03.567Z,978.43
2023-02-02T06:46:03.680Z,978.43
2023-02-02T06:47:03.484Z,978.32
2023-02-02T06:48:03.523Z,978.35
2023-02-02T06:49:03.383Z,978.43
2023-02-02T06:50:03.269Z,978.53
2023-02-02T06:51:03.250Z,978.59
2023-02-02T06:52:03.142Z,978.53
2023-02-02T06:53:03.262Z,978.47
2023-02-02T06:54:03.088Z,978.43
2023-02-02T06:55:03.050Z,978.45
2023-02-02T06:56:03.189Z,978.47
2023-02-02T06:57:03.084Z,978.37
2023-02-02T06:58:03.093Z,978.43
2023-02-02T06:59:03.015Z,978.37
2023-02-02T07:00:03.175Z,978.43
2023-02-02T07:01:02.977Z,978.34
2023-02-02T07:02:02.955Z,978.56
2023-02-02T07:03:04.040Z,978.50
2023-02-02T07:04:02.915Z,978.37
2023-02-02T07:05:02.898Z,978.50
2023-02-02T07:06:03.127Z,978.56
2023-02-02T07:07:02.899Z,978.50
2023-02-02T07:08:03.268Z,978.53
2023-02-02T07:09:03.910Z,978.56
2023-02-02T07:10:03.382Z,978.59
2023-02-02T07:11:16.279Z,978.53
2023-02-02T07:12:03.196Z,978.61
2023-02-02T07:13:03.036Z,978.40
2023-02-02T07:14:02.907Z,978.48
2023-02-02T07:15:02.938Z,978.53
2023-02-02T07:16:02.946Z,978.59
2023-02-02T07:17:03.909Z,978.59
2023-02-02T07:18:02.927Z,978.56
2023-02-02T07:19:03.003Z,978.67
2023-02-02T07:20:02.932Z,978.45
2023-02-02T07:21:02.995Z,978.62
2023-02-02T07:22:02.932Z,978.62
2023-02-02T07:23:02.921Z,978.70
2023-02-02T07:24:03.004Z,978.53
2023-02-02T07:25:03.881Z,978.64
2023-02-02T07:26:02.981Z,978.67
2023-02-02T07:27:02.934Z,978.59
2023-02-02T07:28:03.840Z,978.53
2023-02-02T07:29:03.912Z,978.70
2023-02-02T07:30:03.868Z,978.56
2023-02-02T07:31:04.043Z,978.56
2023-02-02T07:32:03.837Z,978.78
2023-02-02T07:33:03.687Z,978.56
2023-02-02T07:34:03.796Z,978.64
2023-02-02T07:35:03.722Z,978.53
2023-02-02T07:36:03.649Z,978.58
2023-02-02T07:37:03.593Z,978.75
2023-02-02T07:38:03.591Z,978.83
2023-02-02T07:39:03.646Z,978.78
2023-02-02T07:40:03.731Z,978.75
2023-02-02T07:41:03.589Z,978.66
2023-02-02T07:42:03.587Z,978.69
2023-02-02T07:43:03.600Z,978.72
2023-02-02T07:44:03.547Z,978.69
2023-02-02T07:45:28.341Z,978.69
2023-02-02T07:46:03.688Z,978.72
2023-02-02T07:47:03.494Z,978.66
2023-02-02T07:48:03.555Z,978.63
2023-02-02T07:49:03.499Z,978.71
2023-02-02T07:50:03.417Z,978.88
2023-02-02T07:51:03.414Z,978.69
2023-02-02T07:52:03.427Z,978.66
2023-02-02T07:53:03.374Z,978.68
2023-02-02T07:54:03.294Z,978.63
2023-02-02T07:55:15.114Z,978.79
2023-02-02T07:56:03.182Z,978.71
2023-02-02T07:57:03.299Z,978.71
2023-02-02T07:58:03.305Z,978.74
2023-02-02T07:59:03.279Z,978.76
2023-02-02T08:00:03.229Z,978.68
2023-02-02T08:01:03.297Z,978.76
2023-02-02T08:02:03.344Z,978.76
2023-02-02T08:03:03.337Z,978.85
2023-02-02T08:04:03.303Z,978.82
2023-02-02T08:05:03.241Z,978.79
2023-02-02T08:06:03.190Z,978.71
2023-02-02T08:07:03.185Z,978.85
2023-02-02T08:08:03.177Z,978.79
2023-02-02T08:09:03.219Z,978.79
2023-02-02T08:10:03.126Z,978.90
2023-02-02T08:11:03.055Z,979.01
2023-02-02T08:12:03.027Z,978.73
2023-02-02T08:13:03.035Z,978.90
2023-02-02T08:14:03.063Z,978.81
2023-02-02T08:15:02.965Z,978.70
2023-02-02T08:16:02.969Z,978.90
2023-02-02T08:17:03.031Z,978.84
2023-02-02T08:18:03.959Z,978.81
2023-02-02T08:19:04.047Z,978.93
2023-02-02T08:20:03.754Z,979.04
2023-02-02T08:21:03.669Z,978.92
2023-02-02T08:22:03.683Z,979.01
2023-02-02T08:23:03.726Z,979.09
2023-02-02T08:24:03.690Z,979.01
2023-02-02T08:25:03.563Z,979.18
2023-02-02T08:26:03.458Z,979.12
2023-02-02T08:27:03.443Z,979.18
2023-02-02T08:28:03.013Z,979.31
2023-02-02T08:29:03.891Z,979.23
2023-02-02T08:30:03.841Z,979.15
2023-02-02T08:31:03.889Z,979.26
2023-02-02T08:32:03.899Z,979.23
2023-02-02T08:33:03.738Z,979.23
2023-02-02T08:34:03.776Z,979.23
2023-02-02T08:35:03.862Z,979.12
2023-02-02T08:36:03.783Z,979.23
2023-02-02T08:37:03.726Z,979.26
2023-02-02T08:38:03.745Z,979.34
2023-02-02T08:39:03.778Z,979.17
2023-02-02T08:40:03.837Z,979.34
2023-02-02T08:41:03.637Z,979.31
2023-02-02T08:42:03.672Z,979.25
2023-02-02T08:43:04.483Z,979.20
2023-02-02T08:44:03.574Z,979.37
2023-02-02T08:46:06.021Z,979.31
2023-02-02T08:46:14.440Z,979.39
2023-02-02T08:47:03.818Z,979.36
2023-02-02T08:48:12.499Z,979.50
2023-02-02T08:49:03.377Z,979.42
2023-02-02T08:50:03.242Z,979.47
2023-02-02T08:51:03.109Z,979.47
2023-02-02T08:52:03.063Z,979.47
2023-02-02T08:53:03.042Z,979.59
2023-02-02T08:54:03.065Z,979.56
2023-02-02T08:55:03.026Z,979.47
2023-02-02T08:56:02.953Z,979.56
2023-02-02T08:57:02.895Z,979.42
2023-02-02T08:58:03.869Z,979.42
2023-02-02T08:59:03.860Z,979.42
2023-02-02T09:00:03.814Z,979.44
2023-02-02T09:01:03.830Z,979.53
2023-02-02T09:02:03.750Z,979.47
2023-02-02T09:03:03.576Z,979.50
2023-02-02T09:04:03.592Z,979.47
2023-02-02T09:05:03.615Z,979.39
2023-02-02T09:06:03.631Z,979.47
2023-02-02T09:07:03.619Z,979.55
2023-02-02T09:08:03.555Z,979.44
2023-02-02T09:09:03.509Z,979.55
2023-02-02T09:10:03.422Z,979.50
2023-02-02T09:11:03.434Z,979.55
2023-02-02T09:12:03.453Z,979.44
2023-02-02T09:13:03.448Z,979.52
2023-02-02T09:14:03.466Z,979.41
2023-02-02T09:15:03.330Z,979.64
2023-02-02T09:16:03.263Z,979.61
2023-02-02T09:17:03.339Z,979.47
2023-02-02T09:18:03.239Z,979.75
2023-02-02T09:19:03.222Z,979.72
2023-02-02T09:20:03.110Z,979.78
2023-02-02T09:21:03.111Z,979.69
2023-02-02T09:22:03.072Z,979.72
2023-02-02T09:23:02.979Z,979.78
2023-02-02T09:24:02.941Z,979.93
2023-02-02T09:25:03.007Z,979.83
2023-02-02T09:26:03.857Z,979.72
2023-02-02T09:27:03.967Z,979.93
2023-02-02T09:28:03.721Z,979.88
2023-02-02T09:29:03.760Z,979.80
2023-02-02T09:30:03.644Z,979.96
2023-02-02T09:31:03.806Z,979.88
2023-02-02T09:32:03.644Z,980.26
2023-02-02T09:33:03.584Z,979.94
2023-02-02T09:34:03.598Z,979.94
2023-02-02T09:35:03.630Z,980.05
2023-02-02T09:36:03.476Z,979.94
2023-02-02T09:37:03.414Z,980.05
2023-02-02T09:38:03.332Z,979.99
2023-02-02T09:39:03.219Z,980.10
2023-02-02T09:40:03.259Z,980.02
2023-02-02T09:41:03.079Z,980.02
2023-02-02T09:42:03.152Z,979.99
2023-02-02T09:43:03.044Z,980.10
2023-02-02T09:44:03.145Z,980.21
2023-02-02T09:45:02.986Z,980.24
2023-02-02T09:46:03.268Z,980.13
2023-02-02T09:47:02.969Z,980.21
2023-02-02T09:48:03.904Z,980.35
2023-02-02T09:49:03.850Z,980.32
2023-02-02T09:50:03.782Z,980.41
2023-02-02T09:51:03.782Z,980.38
2023-02-02T09:52:03.778Z,980.52
2023-02-02T09:53:03.846Z,980.43
2023-02-02T09:54:03.870Z,980.24
2023-02-02T09:55:03.832Z,980.38
2023-02-02T09:56:03.806Z,980.29
2023-02-02T09:57:03.767Z,980.38
2023-02-02T09:58:03.653Z,980.41
2023-02-02T09:59:21.029Z,980.43
2023-02-02T10:00:03.614Z,980.52
2023-02-02T10:01:03.687Z,980.35
2023-02-02T10:02:03.575Z,980.29
2023-02-02T10:03:03.730Z,980.27
2023-02-02T10:04:03.776Z,980.38
2023-02-02T10:05:03.634Z,980.38
2023-02-02T10:06:03.574Z,980.43
2023-02-02T10:07:03.663Z,980.24
2023-02-02T10:08:03.689Z,980.29
2023-02-02T10:09:03.723Z,980.29
2023-02-02T10:10:03.828Z,980.35
2023-02-02T10:11:03.753Z,980.38
2023-02-02T10:12:03.718Z,980.41
2023-02-02T10:13:03.591Z,980.43
2023-02-02T10:14:03.609Z,980.41
2023-02-02T10:15:03.752Z,980.29
2023-02-02T10:16:03.851Z,980.46
2023-02-02T10:17:03.669Z,980.46
2023-02-02T10:18:06.355Z,980.26
2023-02-02T10:19:03.758Z,980.38
2023-02-02T10:20:03.655Z,980.35
2023-02-02T10:21:03.778Z,980.43
2023-02-02T10:22:03.770Z,980.54
2023-02-02T10:23:03.533Z,980.60
2023-02-02T10:24:03.441Z,980.49
2023-02-02T10:25:03.418Z,980.54
2023-02-02T10:26:03.457Z,980.60
2023-02-02T10:27:03.481Z,980.66
2023-02-02T10:28:03.360Z,980.68
2023-02-02T10:29:03.283Z,980.57
2023-02-02T10:30:03.232Z,980.52
2023-02-02T10:31:03.552Z,980.66
2023-02-02T10:32:03.449Z,980.40
2023-02-02T10:33:03.176Z,980.46
2023-02-02T10:34:03.202Z,980.60
2023-02-02T10:35:14.723Z,980.46
2023-02-02T10:36:03.200Z,980.54
2023-02-02T10:37:03.131Z,980.63
2023-02-02T10:38:03.191Z,980.60
2023-02-02T10:39:03.028Z,980.77
2023-02-02T10:40:03.303Z,980.60
2023-02-02T10:41:03.084Z,980.63
2023-02-02T10:42:02.982Z,980.63
2023-02-02T10:43:02.924Z,980.57
2023-02-02T10:44:03.864Z,980.63
2023-02-02T10:45:03.846Z,980.49
2023-02-02T10:46:03.863Z,980.55
2023-02-02T10:47:03.705Z,980.52
2023-02-02T10:48:03.703Z,980.41
2023-02-02T10:49:03.669Z,980.55
2023-02-02T10:50:03.658Z,980.44
2023-02-02T10:51:03.745Z,980.52
2023-02-02T10:52:03.693Z,980.44
2023-02-02T10:53:03.768Z,980.35
2023-02-02T10:54:03.593Z,980.52
2023-02-02T10:55:04.925Z,980.58
2023-02-02T10:56:03.576Z,980.41
2023-02-02T10:57:03.537Z,980.52
2023-02-02T10:58:03.543Z,980.52
2023-02-02T10:59:03.513Z,980.41
2023-02-02T11:00:03.458Z,980.58
2023-02-02T11:01:03.425Z,980.47
2023-02-02T11:02:21.368Z,980.53
2023-02-02T11:03:03.460Z,980.41
2023-02-02T11:04:03.305Z,980.36
2023-02-02T11:05:03.308Z,980.41
2023-02-02T11:06:03.296Z,980.55
2023-02-02T11:07:03.265Z,980.47
2023-02-02T11:08:03.298Z,980.47
2023-02-02T11:09:03.304Z,980.44
2023-02-02T11:10:03.070Z,980.50
2023-02-02T11:11:03.012Z,980.44
2023-02-02T11:12:02.916Z,980.47
2023-02-02T11:13:02.974Z,980.22
2023-02-02T11:14:04.108Z,980.31
2023-02-02T11:15:03.839Z,980.36
2023-02-02T11:16:06.272Z,980.50
2023-02-02T11:17:03.803Z,980.31
2023-02-02T11:18:03.859Z,980.42
2023-02-02T11:19:03.743Z,980.31
2023-02-02T11:20:03.739Z,980.42
2023-02-02T11:21:03.789Z,980.25
2023-02-02T11:22:03.788Z,980.36
2023-02-02T11:23:03.767Z,980.17
2023-02-02T11:24:03.712Z,980.39
2023-02-02T11:25:03.672Z,980.28
2023-02-02T11:26:03.708Z,980.28
2023-02-02T11:27:03.630Z,980.44
2023-02-02T11:28:03.523Z,980.39
2023-02-02T11:29:03.900Z,980.28
2023-02-02T11:30:03.773Z,980.42
2023-02-02T11:31:03.974Z,980.36
2023-02-02T11:32:03.815Z,980.39
2023-02-02T11:33:03.689Z,980.53
2023-02-02T11:34:03.580Z,980.30
2023-02-02T11:35:03.643Z,980.36
2023-02-02T11:36:03.532Z,980.30
2023-02-02T11:37:03.527Z,980.39
2023-02-02T11:38:03.592Z,980.30
2023-02-02T11:39:03.604Z,980.25
2023-02-02T11:40:03.638Z,980.39
2023-02-02T11:41:03.647Z,980.41
2023-02-02T11:42:03.727Z,980.44
2023-02-02T11:43:03.791Z,980.36
2023-02-02T11:44:03.705Z,980.33
2023-02-02T11:45:03.599Z,980.47
2023-02-02T11:46:03.913Z,980.25
2023-02-02T11:47:03.596Z,980.39
2023-02-02T11:48:03.674Z,980.33
2023-02-02T11:49:03.624Z,980.33
2023-02-02T11:50:04.419Z,980.30
2023-02-02T11:51:03.789Z,980.33
2023-02-02T11:52:03.518Z,980.30
2023-02-02T11:53:03.151Z,980.27
2023-02-02T11:54:03.094Z,980.44
2023-02-02T11:55:03.143Z,980.47
2023-02-02T11:56:03.059Z,980.47
2023-02-02T11:57:03.091Z,980.53
2023-02-02T11:58:02.935Z,980.64
2023-02-02T11:59:02.854Z,980.55
2023-02-02T12:00:03.881Z,980.58
2023-02-02T12:01:02.976Z,980.44
2023-02-02T12:02:03.848Z,980.44
2023-02-02T12:03:03.817Z,980.64
2023-02-02T12:04:03.926Z,980.55
2023-02-02T12:05:03.887Z,980.61
2023-02-02T12:06:03.859Z,980.55
2023-02-02T12:07:03.818Z,980.55
2023-02-02T12:08:03.712Z,980.55
2023-02-02T12:09:03.769Z,980.58
2023-02-02T12:10:03.801Z,980.53
2023-02-02T12:11:03.738Z,980.47
2023-02-02T12:12:02.995Z,980.66
2023-02-02T12:13:02.912Z,980.69
2023-02-02T12:14:02.917Z,980.61
2023-02-02T12:15:02.958Z,980.78
2023-02-02T12:16:03.911Z,980.69
2023-02-02T12:17:03.839Z,980.92
2023-02-02T12:18:03.815Z,980.80
2023-02-02T12:19:03.770Z,980.80
2023-02-02T12:20:03.681Z,980.77
2023-02-02T12:21:04.025Z,980.63
2023-02-02T12:22:03.617Z,980.83
2023-02-02T12:23:03.555Z,980.72
2023-02-02T12:24:03.473Z,980.61
2023-02-02T12:25:03.371Z,980.66
2023-02-02T12:26:03.379Z,980.74
2023-02-02T12:27:03.464Z,980.69
2023-02-02T12:28:03.447Z,980.58
2023-02-02T12:29:03.509Z,980.74